Time;durP1;ratioP1;P1;durP2;ratioP2;P2;SDS_P1;SDS_P2;PMS_P1;PMS_P2;Temp;Humidity;BMP_temperature;BMP_pressure;BME280_temperature;BME280_humidity;BME280_pressure;Samples;Min_cycle;Max_cycle;Signal;HPM_P1;HPM_P2
2021/12/29 00:01:50;;;;;;;2.40;1.98;;;6.50;78.80;;;;;;5171430;27;20041;-53
2021/12/29 00:04:17;;;;;;;3.80;2.65;;;6.50;78.80;;;;;;5163148;27;20085;-55
2021/12/29 00:06:43;;;;;;;3.28;2.15;;;6.60;79.50;;;;;;5164632;27;20070;-55
2021/12/29 00:09:09;;;;;;;4.35;2.28;;;6.60;78.80;;;;;;5164234;27;20038;-54
2021/12/29 00:11:40;;;;;;;2.45;2.10;;;6.50;78.80;;;;;;5172544;27;20031;-52
2021/12/29 00:14:07;;;;;;;2.42;2.22;;;6.60;78.90;;;;;;5174911;27;20063;-55
2021/12/29 00:16:35;;;;;;;2.53;2.20;;;6.60;78.90;;;;;;5176707;27;20034;-48
2021/12/29 00:19:07;;;;;;;2.55;2.05;;;6.60;78.90;;;;;;5176545;27;20511;-55
2021/12/29 00:21:35;;;;;;;2.88;2.25;;;6.60;78.90;;;;;;5174625;27;20117;-53
2021/12/29 00:24:02;;;;;;;2.67;2.25;;;6.60;78.90;;;;;;5141017;27;20054;-54
2021/12/29 00:26:29;;;;;;;2.65;2.30;;;6.60;78.90;;;;;;5156125;27;20043;-53
2021/12/29 00:28:58;;;;;;;2.85;2.30;;;6.60;78.90;;;;;;5155663;27;20046;-55
2021/12/29 00:31:25;;;;;;;2.78;2.17;;;6.50;78.80;;;;;;5136488;27;20487;-54
2021/12/29 00:33:51;;;;;;;2.58;2.05;;;6.60;78.90;;;;;;5157007;27;20046;-53
2021/12/29 00:36:17;;;;;;;2.38;1.98;;;6.60;78.90;;;;;;5155395;27;20039;-51
2021/12/29 00:38:43;;;;;;;2.75;2.00;;;6.60;78.80;;;;;;5155523;27;20130;-55
2021/12/29 00:41:09;;;;;;;3.40;2.63;;;6.60;78.90;;;;;;5155515;27;20050;-54
2021/12/29 00:43:35;;;;;;;3.25;2.42;;;6.60;78.90;;;;;;5156936;27;20038;-49
2021/12/29 00:46:01;;;;;;;2.42;1.85;;;6.60;78.90;;;;;;5155107;27;20061;-53
2021/12/29 00:48:35;;;;;;;3.05;2.20;;;6.60;78.90;;;;;;5155647;27;20035;-51
2021/12/29 00:51:00;;;;;;;3.70;2.28;;;6.60;78.90;;;;;;5169707;27;20117;-51
2021/12/29 00:53:26;;;;;;;2.67;2.30;;;6.60;78.90;;;;;;5175856;27;20442;-51
2021/12/29 00:55:52;;;;;;;3.63;2.13;;;6.60;78.90;;;;;;5174413;27;20046;-51
2021/12/29 00:58:18;;;;;;;2.85;2.10;;;6.60;78.90;;;;;;5175318;27;20444;-53
2021/12/29 01:00:43;;;;;;;3.10;2.10;;;6.60;78.90;;;;;;5174847;27;20050;-54
2021/12/29 01:03:10;;;;;;;3.60;2.50;;;6.60;78.90;;;;;;5169038;27;20091;-54
2021/12/29 01:05:37;;;;;;;2.65;2.28;;;6.60;78.90;;;;;;5169217;27;20077;-52
2021/12/29 01:08:03;;;;;;;4.35;2.58;;;6.60;78.90;;;;;;5175653;27;20045;-53
2021/12/29 01:10:29;;;;;;;3.25;2.10;;;6.60;78.90;;;;;;5154824;27;20035;-53
2021/12/29 01:12:58;;;;;;;2.80;2.13;;;6.60;78.90;;;;;;5136598;27;20110;-55
2021/12/29 01:15:32;;;;;;;2.00;1.80;;;6.60;78.90;;;;;;5154968;27;20427;-47
2021/12/29 01:18:01;;;;;;;3.13;2.30;;;6.60;78.90;;;;;;5154651;27;20089;-53
2021/12/29 01:20:28;;;;;;;2.83;2.20;;;6.60;78.90;;;;;;5156129;27;20127;-53
2021/12/29 01:22:54;;;;;;;3.13;2.38;;;6.60;78.90;;;;;;5172297;27;20046;-54
2021/12/29 01:25:21;;;;;;;2.83;2.45;;;6.60;78.90;;;;;;5175264;27;20038;-52
2021/12/29 01:27:48;;;;;;;3.10;2.40;;;6.60;78.90;;;;;;5173746;27;20121;-52
2021/12/29 01:30:16;;;;;;;3.13;2.47;;;6.60;78.90;;;;;;5175542;27;20090;-54
2021/12/29 01:32:42;;;;;;;3.13;2.30;;;6.60;79.00;;;;;;5173423;27;20039;-55
2021/12/29 01:35:10;;;;;;;2.92;2.25;;;6.60;78.90;;;;;;5170861;27;20046;-54
2021/12/29 01:37:39;;;;;;;3.45;2.53;;;6.60;79.00;;;;;;5137923;27;20034;-54
2021/12/29 01:40:10;;;;;;;3.65;2.33;;;6.60;78.90;;;;;;5154377;27;20474;-54
2021/12/29 01:42:36;;;;;;;3.83;2.40;;;6.60;78.90;;;;;;5154543;27;20038;-54
2021/12/29 01:45:03;;;;;;;2.63;2.25;;;6.60;79.00;;;;;;5154817;27;20042;-53
2021/12/29 01:47:30;;;;;;;3.78;2.95;;;6.60;79.00;;;;;;5137191;27;20118;-55
2021/12/29 01:49:59;;;;;;;2.67;2.35;;;6.60;78.90;;;;;;5154235;27;20210;-52
2021/12/29 01:52:30;;;;;;;3.88;2.58;;;6.60;79.00;;;;;;5154759;27;20051;-53
2021/12/29 01:54:56;;;;;;;3.47;2.40;;;6.60;78.90;;;;;;5160758;27;20045;-55
2021/12/29 01:57:22;;;;;;;2.97;2.45;;;6.60;78.90;;;;;;5175559;27;20042;-49
2021/12/29 01:59:48;;;;;;;3.05;2.53;;;6.60;78.90;;;;;;5156354;27;20038;-54
2021/12/29 02:02:14;;;;;;;2.95;2.05;;;6.60;79.00;;;;;;5139942;27;20521;-54
2021/12/29 02:04:42;;;;;;;3.47;2.33;;;6.70;79.00;;;;;;5153760;27;20038;-54
2021/12/29 02:07:08;;;;;;;2.80;2.00;;;6.60;79.00;;;;;;5154184;27;20035;-53
2021/12/29 02:09:34;;;;;;;3.22;2.50;;;6.60;79.00;;;;;;5153981;27;20057;-53
2021/12/29 02:12:01;;;;;;;2.60;1.88;;;6.70;79.00;;;;;;5168441;27;20038;-54
2021/12/29 02:14:26;;;;;;;3.20;2.70;;;6.60;79.00;;;;;;5179143;27;20393;-56
2021/12/29 02:16:52;;;;;;;3.70;2.60;;;6.60;79.00;;;;;;5173011;27;20038;-55
2021/12/29 02:19:18;;;;;;;3.05;2.67;;;6.60;79.00;;;;;;5159476;27;20053;-55
2021/12/29 02:21:53;;;;;;;4.10;2.63;;;6.60;79.00;;;;;;5163005;27;20466;-52
2021/12/29 02:24:22;;;;;;;3.17;2.65;;;6.70;79.00;;;;;;5178660;27;20046;-52
2021/12/29 02:26:48;;;;;;;2.88;2.58;;;6.60;79.00;;;;;;5179334;27;20094;-54
2021/12/29 02:29:17;;;;;;;3.40;2.55;;;6.70;79.00;;;;;;5176105;27;20042;-53
2021/12/29 02:31:44;;;;;;;4.65;3.10;;;6.70;79.00;;;;;;5159306;27;20063;-52
2021/12/29 02:34:12;;;;;;;4.05;3.00;;;6.70;79.00;;;;;;5159118;27;20049;-54
2021/12/29 02:36:43;;;;;;;3.03;2.60;;;6.70;79.10;;;;;;5158644;27;20043;-52
2021/12/29 02:39:15;;;;;;;3.15;2.60;;;6.60;79.00;;;;;;5159052;27;20481;-55
2021/12/29 02:41:50;;;;;;;3.35;2.45;;;6.70;79.00;;;;;;5158898;27;20490;-53
2021/12/29 02:44:23;;;;;;;3.90;2.92;;;6.70;79.00;;;;;;5157745;27;20046;-54
2021/12/29 02:46:50;;;;;;;2.72;2.30;;;6.70;79.00;;;;;;5163282;27;20030;-53
2021/12/29 02:49:15;;;;;;;4.03;2.80;;;6.70;79.00;;;;;;5178596;27;20122;-54
2021/12/29 02:51:41;;;;;;;3.78;2.75;;;6.60;79.00;;;;;;5177065;27;20069;-54
2021/12/29 02:54:07;;;;;;;3.50;2.40;;;6.70;79.00;;;;;;5177545;27;20458;-50
2021/12/29 02:56:34;;;;;;;3.83;2.95;;;6.70;79.00;;;;;;5157424;27;20564;-55
2021/12/29 02:58:59;;;;;;;2.90;2.40;;;6.70;79.00;;;;;;5157878;27;20126;-51
2021/12/29 03:01:27;;;;;;;3.03;2.35;;;6.70;79.00;;;;;;5158926;27;20065;-53
2021/12/29 03:03:57;;;;;;;2.90;2.60;;;6.70;79.10;;;;;;5157484;27;20043;-54
2021/12/29 03:06:24;;;;;;;3.72;2.85;;;6.70;79.00;;;;;;5157682;27;20502;-54
2021/12/29 03:08:50;;;;;;;2.92;2.20;;;6.70;79.10;;;;;;5156789;27;20122;-54
2021/12/29 03:11:16;;;;;;;3.28;2.30;;;6.70;79.10;;;;;;5173842;27;20423;-54
2021/12/29 03:13:42;;;;;;;3.80;2.13;;;6.70;79.00;;;;;;5176465;27;20049;-52
2021/12/29 03:16:09;;;;;;;2.80;2.40;;;6.70;79.10;;;;;;5177842;27;20042;-49
2021/12/29 03:18:34;;;;;;;2.78;2.35;;;6.70;79.00;;;;;;5158259;27;20035;-54
2021/12/29 03:21:00;;;;;;;3.60;2.60;;;6.70;79.10;;;;;;5156951;27;20515;-54
2021/12/29 03:23:27;;;;;;;3.10;2.30;;;6.70;79.00;;;;;;5162638;27;20069;-50
2021/12/29 03:25:52;;;;;;;2.95;2.28;;;6.70;79.00;;;;;;5176981;27;20043;-51
2021/12/29 03:28:21;;;;;;;2.83;2.40;;;6.70;79.00;;;;;;5177918;27;20046;-53
2021/12/29 03:30:50;;;;;;;3.50;2.50;;;6.70;79.10;;;;;;5177595;27;20482;-53
2021/12/29 03:33:17;;;;;;;3.78;2.50;;;6.70;79.00;;;;;;5155689;27;20054;-53
2021/12/29 03:35:51;;;;;;;2.83;2.30;;;6.70;79.10;;;;;;5177245;27;20439;-54
2021/12/29 03:38:24;;;;;;;3.97;2.63;;;6.70;79.00;;;;;;5177250;27;20489;-51
2021/12/29 03:40:51;;;;;;;3.00;2.50;;;6.70;79.00;;;;;;5162232;27;20037;-54
2021/12/29 03:43:17;;;;;;;3.60;2.50;;;6.70;79.00;;;;;;5175134;27;20507;-51
2021/12/29 03:45:45;;;;;;;3.20;2.28;;;6.70;79.10;;;;;;5175588;27;20438;-52
2021/12/29 03:48:12;;;;;;;3.10;2.47;;;6.70;79.00;;;;;;5177473;27;20026;-48
2021/12/29 03:50:39;;;;;;;3.67;2.72;;;6.70;79.00;;;;;;5156853;27;20059;-51
2021/12/29 03:53:05;;;;;;;2.55;2.20;;;6.70;79.00;;;;;;5157682;27;20453;-52
2021/12/29 03:55:31;;;;;;;3.20;2.15;;;6.70;79.00;;;;;;5157734;27;20038;-51
2021/12/29 03:57:57;;;;;;;3.10;2.38;;;6.70;79.00;;;;;;5156330;27;20446;-50
2021/12/29 04:00:23;;;;;;;3.33;2.42;;;6.70;79.00;;;;;;5156594;27;20057;-46
2021/12/29 04:02:49;;;;;;;3.47;2.80;;;6.70;79.00;;;;;;5158846;27;20094;-46
2021/12/29 04:05:21;;;;;;;3.40;2.72;;;6.70;79.00;;;;;;5171822;27;20042;-53
2021/12/29 04:07:47;;;;;;;3.17;2.42;;;6.70;79.00;;;;;;5176730;27;20046;-55
2021/12/29 04:10:14;;;;;;;3.67;2.55;;;6.70;79.10;;;;;;5167050;27;20038;-54
2021/12/29 04:12:40;;;;;;;3.53;2.35;;;6.70;79.00;;;;;;5167754;27;20043;-53
2021/12/29 04:15:08;;;;;;;3.22;2.25;;;6.70;79.00;;;;;;5167767;27;20479;-55
2021/12/29 04:17:37;;;;;;;3.05;2.40;;;6.70;79.00;;;;;;5157169;27;20499;-54
2021/12/29 04:22:52;;;;;;;3.03;2.40;;;6.70;79.00;;;;;;5165702;27;20122;-54
2021/12/29 04:25:23;;;;;;;2.92;2.40;;;6.70;79.00;;;;;;5173138;27;20511;-50
2021/12/29 04:27:57;;;;;;;2.80;2.20;;;6.70;79.00;;;;;;5157262;27;20038;-54
2021/12/29 04:30:24;;;;;;;3.05;2.60;;;6.70;79.00;;;;;;5155419;27;20050;-55
2021/12/29 04:32:52;;;;;;;3.30;2.55;;;6.80;79.10;;;;;;5166231;27;20134;-55
2021/12/29 04:35:18;;;;;;;3.60;2.35;;;6.70;79.10;;;;;;5175974;27;20053;-54
2021/12/29 04:37:44;;;;;;;3.72;2.53;;;6.70;79.00;;;;;;5174945;27;20038;-54
2021/12/29 04:40:10;;;;;;;3.72;2.70;;;6.70;79.00;;;;;;5175460;27;20045;-52
2021/12/29 04:42:35;;;;;;;3.22;2.30;;;6.70;79.10;;;;;;5172814;27;20043;-55
2021/12/29 04:45:02;;;;;;;4.07;2.63;;;6.70;79.00;;;;;;5155179;27;20030;-53
2021/12/29 04:47:29;;;;;;;3.38;2.30;;;6.70;79.00;;;;;;5138293;27;20051;-51
2021/12/29 04:49:59;;;;;;;3.72;2.38;;;6.70;79.00;;;;;;5137510;27;20057;-51
2021/12/29 04:52:25;;;;;;;3.03;2.25;;;6.70;79.00;;;;;;5172865;27;20049;-53
2021/12/29 04:54:51;;;;;;;3.72;2.50;;;6.70;79.00;;;;;;5160641;27;20094;-52
2021/12/29 04:57:17;;;;;;;2.75;2.08;;;6.70;79.10;;;;;;5175940;27;20116;-53
2021/12/29 04:59:43;;;;;;;3.17;2.28;;;6.70;79.00;;;;;;5174541;27;20053;-52
2021/12/29 05:02:09;;;;;;;3.85;2.47;;;6.80;79.10;;;;;;5175346;27;20053;-53
2021/12/29 05:04:45;;;;;;;2.70;2.17;;;6.70;79.00;;;;;;5175974;27;20485;-53
2021/12/29 05:09:55;;;;;;;3.08;2.33;;;6.80;79.10;;;;;;5174382;27;20046;-51
2021/12/29 05:12:21;;;;;;;2.95;2.30;;;6.70;79.00;;;;;;5175219;27;20042;-48
2021/12/29 05:14:47;;;;;;;3.95;2.70;;;6.80;79.10;;;;;;5155050;27;20147;-53
2021/12/29 05:17:12;;;;;;;3.25;2.35;;;6.70;79.00;;;;;;5170495;27;20049;-52
2021/12/29 05:19:38;;;;;;;4.40;2.60;;;6.80;79.10;;;;;;5173837;27;20042;-51
2021/12/29 05:22:04;;;;;;;3.97;2.47;;;6.80;79.10;;;;;;5164091;27;20038;-55
2021/12/29 05:24:30;;;;;;;2.60;2.30;;;6.70;79.00;;;;;;5155105;27;20047;-54
2021/12/29 05:26:56;;;;;;;3.63;2.50;;;6.80;79.10;;;;;;5154987;27;20053;-54
2021/12/29 05:29:22;;;;;;;3.30;2.35;;;6.80;79.80;;;;;;5154775;27;20482;-52
2021/12/29 05:31:48;;;;;;;3.70;2.55;;;6.80;79.10;;;;;;5156854;27;20045;-51
2021/12/29 05:34:13;;;;;;;4.20;2.83;;;6.80;79.10;;;;;;5154103;27;20038;-56
2021/12/29 05:36:39;;;;;;;2.80;2.47;;;6.80;79.10;;;;;;5154513;27;20041;-46
2021/12/29 05:39:05;;;;;;;4.57;2.90;;;6.80;79.10;;;;;;5154769;27;20046;-52
2021/12/29 05:41:30;;;;;;;3.30;2.50;;;6.80;79.10;;;;;;5155648;27;20042;-53
2021/12/29 05:43:56;;;;;;;3.17;2.17;;;6.80;79.10;;;;;;5154453;27;20045;-55
2021/12/29 05:46:21;;;;;;;3.90;2.53;;;6.80;79.10;;;;;;5154194;27;20074;-55
2021/12/29 05:48:47;;;;;;;3.25;2.33;;;6.80;79.10;;;;;;5148516;27;20042;-50
2021/12/29 05:51:13;;;;;;;4.53;2.45;;;6.80;79.10;;;;;;5173224;27;20455;-54
2021/12/29 05:53:41;;;;;;;2.20;2.00;;;6.80;79.10;;;;;;5175315;27;20045;-51
2021/12/29 05:56:08;;;;;;;3.42;2.60;;;6.80;79.10;;;;;;5167429;27;20400;-55
2021/12/29 05:58:34;;;;;;;4.63;2.50;;;6.80;79.10;;;;;;5154453;27;20043;-48
2021/12/29 06:01:00;;;;;;;3.28;2.38;;;6.80;79.10;;;;;;5154580;27;20041;-55
2021/12/29 06:03:25;;;;;;;3.75;2.50;;;6.80;79.10;;;;;;5158486;27;20030;-54
2021/12/29 06:05:51;;;;;;;3.08;2.53;;;6.80;79.10;;;;;;5174389;27;20038;-49
2021/12/29 06:08:17;;;;;;;3.17;2.33;;;6.80;79.10;;;;;;5156306;27;20473;-54
2021/12/29 06:10:42;;;;;;;3.83;2.40;;;6.80;79.10;;;;;;5174641;27;20030;-55
2021/12/29 06:13:08;;;;;;;2.88;2.33;;;6.80;79.10;;;;;;5173046;27;20042;-55
2021/12/29 06:15:34;;;;;;;3.30;2.55;;;6.80;79.10;;;;;;5144381;27;20043;-55
2021/12/29 06:18:00;;;;;;;4.32;2.67;;;6.80;79.10;;;;;;5154185;27;20122;-53
2021/12/29 06:20:26;;;;;;;2.83;2.15;;;6.80;79.10;;;;;;5165412;27;20058;-54
2021/12/29 06:22:52;;;;;;;3.25;2.58;;;6.80;79.10;;;;;;5163271;27;20031;-56
2021/12/29 06:25:18;;;;;;;3.03;2.28;;;6.80;79.10;;;;;;5154051;27;20130;-55
2021/12/29 06:27:44;;;;;;;2.83;2.53;;;6.80;79.10;;;;;;5154129;27;20497;-55
2021/12/29 06:30:12;;;;;;;3.00;2.08;;;6.80;79.10;;;;;;5154192;27;20047;-55
2021/12/29 06:32:39;;;;;;;3.70;2.95;;;6.80;79.10;;;;;;5154083;27;20441;-52
2021/12/29 06:35:06;;;;;;;3.95;2.78;;;6.80;79.10;;;;;;5155139;27;20070;-55
2021/12/29 06:37:32;;;;;;;2.50;2.00;;;6.80;79.10;;;;;;5153804;27;20395;-51
2021/12/29 06:39:58;;;;;;;3.20;2.58;;;6.80;79.10;;;;;;5153841;27;20486;-55
2021/12/29 06:42:24;;;;;;;2.85;2.22;;;6.80;79.10;;;;;;5153558;27;20039;-56
2021/12/29 06:44:50;;;;;;;3.72;2.65;;;6.80;79.00;;;;;;5155201;27;20039;-48
2021/12/29 06:47:16;;;;;;;3.55;2.65;;;6.80;79.10;;;;;;5149808;27;20088;-49
2021/12/29 06:49:43;;;;;;;3.13;2.35;;;6.80;79.10;;;;;;5156328;27;20049;-55
2021/12/29 06:52:09;;;;;;;3.38;2.58;;;6.80;79.10;;;;;;5174453;27;20034;-52
2021/12/29 06:54:35;;;;;;;3.75;2.35;;;6.80;79.10;;;;;;5172767;27;20489;-56
2021/12/29 06:57:02;;;;;;;3.22;2.80;;;6.80;79.10;;;;;;5155082;27;20117;-56
2021/12/29 06:59:28;;;;;;;2.85;2.50;;;6.80;79.00;;;;;;5178703;27;20042;-52
2021/12/29 07:01:58;;;;;;;3.47;2.30;;;6.80;79.10;;;;;;5178429;27;20517;-52
2021/12/29 07:04:24;;;;;;;4.60;2.22;;;6.80;79.00;;;;;;5159183;27;20046;-46
2021/12/29 07:06:51;;;;;;;3.35;2.40;;;6.80;79.00;;;;;;5176175;27;20042;-54
2021/12/29 07:09:17;;;;;;;2.95;2.30;;;6.80;79.00;;;;;;5177734;27;20041;-51
2021/12/29 07:11:43;;;;;;;3.92;2.80;;;6.80;79.00;;;;;;5177928;27;20043;-52
2021/12/29 07:14:09;;;;;;;4.43;2.72;;;6.80;79.00;;;;;;5177918;27;20110;-55
2021/12/29 07:16:36;;;;;;;4.43;3.38;;;6.90;79.10;;;;;;5158859;27;20106;-54
2021/12/29 07:19:03;;;;;;;2.88;2.45;;;6.80;79.10;;;;;;5171671;27;20158;-55
2021/12/29 07:21:29;;;;;;;3.30;2.45;;;6.90;79.10;;;;;;5172320;27;20064;-48
2021/12/29 07:23:54;;;;;;;4.07;2.70;;;6.80;79.00;;;;;;5156832;27;20394;-48
2021/12/29 07:26:22;;;;;;;3.25;2.67;;;6.80;79.00;;;;;;5157991;27;20077;-47
2021/12/29 07:28:48;;;;;;;3.53;2.60;;;6.80;79.00;;;;;;5138069;27;20050;-54
2021/12/29 07:31:14;;;;;;;4.47;3.05;;;6.90;79.10;;;;;;5164459;27;20038;-55
2021/12/29 07:33:39;;;;;;;3.75;2.60;;;6.90;79.10;;;;;;5178038;27;20091;-50
2021/12/29 07:36:05;;;;;;;3.40;2.55;;;6.80;79.70;;;;;;5176005;27;20026;-55
2021/12/29 07:38:32;;;;;;;3.95;2.78;;;6.90;79.10;;;;;;5176110;27;20042;-56
2021/12/29 07:40:57;;;;;;;3.85;2.78;;;6.90;79.10;;;;;;5176588;27;20121;-52
2021/12/29 07:43:23;;;;;;;3.60;2.70;;;6.80;79.10;;;;;;5177296;27;20070;-56
2021/12/29 07:45:50;;;;;;;3.10;2.60;;;6.90;79.10;;;;;;5177087;27;20046;-53
2021/12/29 07:48:18;;;;;;;3.78;2.53;;;6.90;79.10;;;;;;5174163;27;20101;-55
2021/12/29 07:50:44;;;;;;;3.38;2.78;;;6.90;79.10;;;;;;5164885;27;20039;-55
2021/12/29 07:53:10;;;;;;;4.10;2.65;;;6.90;79.10;;;;;;5156005;27;20371;-56
2021/12/29 07:55:36;;;;;;;3.88;2.72;;;6.90;79.10;;;;;;5156764;27;20475;-55
2021/12/29 07:58:01;;;;;;;3.90;3.15;;;6.90;79.10;;;;;;5157040;27;20062;-56
2021/12/29 08:00:30;;;;;;;4.20;2.80;;;6.90;79.10;;;;;;5156714;27;20046;-55
2021/12/29 08:02:56;;;;;;;4.97;2.65;;;6.90;79.10;;;;;;5175771;27;20042;-55
2021/12/29 08:05:22;;;;;;;3.45;2.75;;;6.90;79.10;;;;;;5176814;27;20393;-55
2021/12/29 08:07:48;;;;;;;3.55;2.63;;;6.90;79.10;;;;;;5176729;27;20050;-52
2021/12/29 08:10:15;;;;;;;5.57;2.92;;;6.90;79.10;;;;;;5175495;27;20065;-56
2021/12/29 08:12:41;;;;;;;3.50;2.90;;;6.90;79.10;;;;;;5176271;27;20045;-56
2021/12/29 08:15:07;;;;;;;4.15;3.22;;;7.00;79.20;;;;;;5168807;27;20567;-55
2021/12/29 08:17:33;;;;;;;3.90;3.08;;;6.90;79.20;;;;;;5160824;27;20486;-49
2021/12/29 08:20:04;;;;;;;5.00;3.45;;;6.90;79.20;;;;;;5174074;27;20053;-55
2021/12/29 08:22:30;;;;;;;4.72;3.05;;;6.90;79.10;;;;;;5158886;27;20050;-55
2021/12/29 08:24:55;;;;;;;5.40;3.50;;;6.90;79.10;;;;;;5137430;27;20043;-51
2021/12/29 08:27:22;;;;;;;4.65;3.75;;;6.90;79.10;;;;;;5169028;27;20069;-54
2021/12/29 08:29:47;;;;;;;4.65;3.53;;;6.90;79.10;;;;;;5155588;27;20122;-56
2021/12/29 08:32:13;;;;;;;5.40;3.65;;;6.90;79.20;;;;;;5159096;27;20117;-53
2021/12/29 08:34:39;;;;;;;15.75;9.73;;;7.00;79.20;;;;;;5146752;27;20057;-54
2021/12/29 08:37:05;;;;;;;5.05;3.70;;;6.90;80.30;;;;;;5176548;27;20043;-48
2021/12/29 08:39:31;;;;;;;6.70;4.40;;;6.90;80.30;;;;;;5176612;27;20049;-55
2021/12/29 08:41:57;;;;;;;5.55;4.35;;;7.00;80.20;;;;;;5174873;27;20038;-56
2021/12/29 08:44:23;;;;;;;5.72;4.07;;;7.00;80.10;;;;;;5175616;27;20044;-55
2021/12/29 08:46:49;;;;;;;8.05;4.40;;;6.90;80.00;;;;;;5163795;27;20478;-56
2021/12/29 08:49:14;;;;;;;6.10;4.05;;;6.90;80.00;;;;;;5155528;27;20054;-55
2021/12/29 08:51:41;;;;;;;6.20;4.40;;;6.90;79.90;;;;;;5172792;27;20034;-55
2021/12/29 08:54:08;;;;;;;6.32;4.18;;;7.00;80.00;;;;;;5175989;27;20390;-53
2021/12/29 08:56:34;;;;;;;6.07;4.38;;;7.00;80.00;;;;;;5176008;27;20058;-56
2021/12/29 08:59:00;;;;;;;6.80;4.30;;;7.00;80.00;;;;;;5170431;27;20535;-49
2021/12/29 09:01:26;;;;;;;7.68;4.30;;;7.00;80.00;;;;;;5165815;27;20075;-53
2021/12/29 09:03:53;;;;;;;5.72;4.00;;;7.00;80.00;;;;;;5154988;27;20038;-52
2021/12/29 09:06:19;;;;;;;6.20;3.97;;;7.00;80.00;;;;;;5160981;27;20038;-49
2021/12/29 09:08:45;;;;;;;5.22;4.13;;;7.00;80.00;;;;;;5154400;27;20043;-53
2021/12/29 09:11:12;;;;;;;5.78;4.18;;;7.00;80.00;;;;;;5162727;27;20032;-50
2021/12/29 09:13:38;;;;;;;6.18;4.22;;;7.10;80.10;;;;;;5155381;27;20074;-49
2021/12/29 09:16:05;;;;;;;4.25;3.40;;;7.00;80.00;;;;;;5154124;27;20038;-52
2021/12/29 09:18:33;;;;;;;6.00;4.10;;;7.00;80.10;;;;;;5156474;27;20039;-51
2021/12/29 09:21:11;;;;;;;4.75;3.72;;;7.00;80.10;;;;;;5154497;27;20058;-54
2021/12/29 09:23:37;;;;;;;5.68;4.05;;;7.00;80.10;;;;;;5155152;27;20402;-52
2021/12/29 09:26:04;;;;;;;5.40;4.15;;;7.00;80.10;;;;;;5154322;27;20435;-55
2021/12/29 09:28:30;;;;;;;6.28;4.63;;;7.00;80.10;;;;;;5153972;27;20043;-53
2021/12/29 09:30:57;;;;;;;4.80;4.05;;;7.00;80.10;;;;;;5154142;27;20047;-54
2021/12/29 09:33:22;;;;;;;6.07;3.90;;;7.00;80.10;;;;;;5155338;27;20045;-51
2021/12/29 09:35:52;;;;;;;6.15;4.05;;;7.00;80.10;;;;;;5153974;27;20046;-55
2021/12/29 09:38:19;;;;;;;5.60;3.83;;;7.00;80.10;;;;;;5139162;27;20042;-54
2021/12/29 09:40:47;;;;;;;6.28;4.25;;;7.00;80.10;;;;;;5174435;27;20045;-52
2021/12/29 09:43:15;;;;;;;4.90;3.67;;;7.00;80.00;;;;;;5145049;27;20039;-50
2021/12/29 09:45:42;;;;;;;4.65;3.60;;;7.00;80.00;;;;;;5166460;27;20038;-50
2021/12/29 09:48:11;;;;;;;5.78;3.65;;;7.00;80.00;;;;;;5174112;27;20030;-49
2021/12/29 09:50:38;;;;;;;4.88;3.50;;;7.00;80.10;;;;;;5155026;27;20193;-53
2021/12/29 09:53:04;;;;;;;5.80;4.05;;;7.00;80.00;;;;;;5174721;27;20038;-51
2021/12/29 09:55:30;;;;;;;6.40;4.18;;;7.10;80.00;;;;;;5162755;27;20053;-51
2021/12/29 09:57:59;;;;;;;4.38;3.65;;;7.00;80.00;;;;;;5173810;27;20042;-55
2021/12/29 10:00:44;;;;;;;5.45;3.70;;;7.00;79.90;;;;;;5174855;27;20045;-47
2021/12/29 10:03:13;;;;;;;7.10;4.07;;;7.00;79.90;;;;;;5171934;27;20050;-49
2021/12/29 10:05:41;;;;;;;5.70;4.07;;;7.00;79.90;;;;;;5162138;27;20039;-52
2021/12/29 10:08:08;;;;;;;5.00;3.60;;;7.00;79.90;;;;;;5170835;27;20515;-52
2021/12/29 10:10:37;;;;;;;5.20;3.90;;;7.00;79.80;;;;;;5154599;27;20043;-54
2021/12/29 10:13:03;;;;;;;5.18;3.97;;;7.00;79.80;;;;;;5149698;27;20047;-52
2021/12/29 10:15:33;;;;;;;4.85;3.45;;;7.00;79.80;;;;;;5150048;27;20031;-50
2021/12/29 10:18:26;;;;;;;5.55;3.53;;;7.00;79.70;;;;;;5150194;27;20057;-50
2021/12/29 10:21:09;;;;;;;4.65;3.50;;;7.00;79.70;;;;;;5150234;27;20473;-50
2021/12/29 10:23:38;;;;;;;5.45;3.50;;;7.00;79.70;;;;;;5131283;27;20152;-47
2021/12/29 10:26:15;;;;;;;5.45;3.75;;;7.00;79.70;;;;;;5154141;27;20611;-49
2021/12/29 10:28:47;;;;;;;4.97;3.53;;;7.10;79.70;;;;;;5169146;27;20061;-49
2021/12/29 10:31:20;;;;;;;5.25;3.38;;;7.00;79.70;;;;;;5170819;27;20050;-52
2021/12/29 10:33:53;;;;;;;4.30;3.33;;;7.00;79.60;;;;;;5158689;27;20418;-54
2021/12/29 10:36:27;;;;;;;5.70;3.53;;;7.00;79.60;;;;;;5153882;27;20042;-53
2021/12/29 10:39:05;;;;;;;4.50;3.25;;;7.00;79.60;;;;;;5159679;27;20035;-47
2021/12/29 10:41:43;;;;;;;4.05;3.53;;;7.00;79.60;;;;;;5158470;27;20039;-48
2021/12/29 10:44:09;;;;;;;5.15;3.25;;;7.00;79.70;;;;;;5160427;27;20034;-51
2021/12/29 10:46:35;;;;;;;4.80;3.50;;;7.00;79.60;;;;;;5165860;27;20034;-54
2021/12/29 10:49:06;;;;;;;4.70;3.28;;;7.00;79.60;;;;;;5167945;27;20528;-53
2021/12/29 10:51:38;;;;;;;4.18;3.00;;;7.00;79.60;;;;;;5149158;27;20046;-53
2021/12/29 10:54:11;;;;;;;3.70;2.92;;;7.00;79.60;;;;;;5157661;27;20122;-54
2021/12/29 10:56:40;;;;;;;4.47;3.17;;;7.00;79.60;;;;;;5167767;27;20049;-54
2021/12/29 10:59:17;;;;;;;4.75;3.40;;;7.00;79.60;;;;;;5156916;27;20089;-50
2021/12/29 11:01:43;;;;;;;4.95;3.72;;;7.00;79.50;;;;;;5165095;27;20046;-53
2021/12/29 11:04:12;;;;;;;4.45;3.58;;;7.00;79.50;;;;;;5158700;27;20065;-54
2021/12/29 11:06:43;;;;;;;4.82;3.33;;;7.10;79.60;;;;;;5149487;27;20042;-53
2021/12/29 11:09:10;;;;;;;4.78;3.13;;;7.00;79.50;;;;;;5176161;27;20095;-47
2021/12/29 11:11:39;;;;;;;4.20;3.28;;;7.00;79.50;;;;;;5167566;27;20030;-46
2021/12/29 11:14:12;;;;;;;3.97;2.90;;;7.00;79.50;;;;;;5166697;27;20133;-49
2021/12/29 11:16:38;;;;;;;4.22;3.08;;;7.10;79.60;;;;;;5168742;27;20582;-50
2021/12/29 11:19:05;;;;;;;4.75;3.25;;;7.10;79.50;;;;;;5164172;27;20034;-46
2021/12/29 11:21:33;;;;;;;4.22;3.13;;;7.00;79.50;;;;;;5174801;27;20086;-52
2021/12/29 11:24:13;;;;;;;5.30;3.67;;;7.10;79.50;;;;;;5173523;27;20098;-54
2021/12/29 11:26:43;;;;;;;3.85;2.47;;;7.10;79.50;;;;;;5171626;27;20043;-53
2021/12/29 11:29:13;;;;;;;4.22;3.22;;;7.10;79.50;;;;;;5139516;27;20039;-54
2021/12/29 11:31:57;;;;;;;4.13;3.13;;;7.10;79.50;;;;;;5158088;27;20035;-48
2021/12/29 11:34:28;;;;;;;3.80;2.90;;;7.10;79.50;;;;;;5159092;27;20103;-51
2021/12/29 11:37:05;;;;;;;4.00;3.00;;;7.10;79.50;;;;;;5171827;27;20043;-54
2021/12/29 11:39:36;;;;;;;3.80;3.20;;;7.10;79.50;;;;;;5156654;27;20050;-53
2021/12/29 11:42:03;;;;;;;4.35;3.00;;;7.10;79.50;;;;;;5157852;27;20048;-55
2021/12/29 11:44:34;;;;;;;4.38;2.83;;;7.10;79.50;;;;;;5154724;27;20062;-54
2021/12/29 11:47:02;;;;;;;4.43;3.03;;;7.10;79.40;;;;;;5160574;27;20049;-46
2021/12/29 11:49:29;;;;;;;4.95;3.38;;;7.10;79.50;;;;;;5156272;27;20133;-49
2021/12/29 11:52:05;;;;;;;4.10;2.83;;;7.10;79.40;;;;;;5164156;27;20398;-48
2021/12/29 11:55:02;;;;;;;3.83;2.65;;;7.10;79.50;;;;;;5155631;27;20126;-50
2021/12/29 11:57:31;;;;;;;4.45;3.13;;;7.10;79.50;;;;;;5159716;27;20050;-50
2021/12/29 12:00:17;;;;;;;3.75;2.58;;;7.10;79.50;;;;;;5165877;27;20039;-46
2021/12/29 12:02:49;;;;;;;4.50;3.45;;;7.10;79.40;;;;;;5163956;27;20046;-50
2021/12/29 12:05:22;;;;;;;3.78;2.97;;;7.10;79.40;;;;;;5165722;27;20111;-52
2021/12/29 12:07:49;;;;;;;3.90;2.78;;;7.10;79.40;;;;;;5129608;27;20166;-55
2021/12/29 12:10:34;;;;;;;4.25;3.10;;;7.10;79.40;;;;;;5171997;27;20042;-53
2021/12/29 12:13:02;;;;;;;4.88;3.22;;;7.10;79.40;;;;;;5170831;27;20042;-50
2021/12/29 12:15:38;;;;;;;3.22;2.75;;;7.10;79.40;;;;;;5136506;27;20089;-50
2021/12/29 12:18:07;;;;;;;4.30;2.70;;;7.10;79.40;;;;;;5155830;27;20034;-52
2021/12/29 12:20:45;;;;;;;4.72;3.35;;;7.10;79.40;;;;;;5156486;27;20053;-46
2021/12/29 12:23:27;;;;;;;4.47;3.05;;;7.20;79.50;;;;;;5155600;27;20090;-54
2021/12/29 12:26:05;;;;;;;3.08;2.50;;;7.20;79.50;;;;;;5157684;27;20125;-54
2021/12/29 12:28:44;;;;;;;3.53;2.95;;;7.10;79.40;;;;;;5156584;27;20050;-53
2021/12/29 12:31:30;;;;;;;4.50;2.95;;;7.10;79.40;;;;;;5155448;27;20043;-53
2021/12/29 12:34:12;;;;;;;4.47;3.28;;;7.10;79.40;;;;;;5155852;27;20049;-52
2021/12/29 12:36:42;;;;;;;4.57;2.80;;;7.10;79.40;;;;;;5155572;27;20077;-57
2021/12/29 12:39:14;;;;;;;8.32;3.03;;;7.10;80.60;;;;;;5155875;27;20129;-58
2021/12/29 12:41:49;;;;;;;5.72;3.55;;;7.20;80.10;;;;;;5155428;27;20039;-57
2021/12/29 12:44:17;;;;;;;6.05;3.58;;;7.20;79.90;;;;;;5156347;27;20118;-57
2021/12/29 12:46:48;;;;;;;6.90;3.33;;;7.20;79.90;;;;;;5155604;27;20386;-58
2021/12/29 12:49:28;;;;;;;6.60;2.92;;;7.20;79.80;;;;;;5154645;27;20436;-57
2021/12/29 12:52:00;;;;;;;5.22;3.38;;;7.20;79.80;;;;;;5155635;27;20043;-57
2021/12/29 12:54:29;;;;;;;4.90;2.92;;;7.20;79.80;;;;;;5156585;27;20056;-56
2021/12/29 12:56:58;;;;;;;5.40;3.22;;;7.20;79.80;;;;;;5155643;27;20035;-55
2021/12/29 12:59:42;;;;;;;4.97;3.50;;;7.20;79.70;;;;;;5154516;27;20031;-57
2021/12/29 13:02:25;;;;;;;3.75;2.78;;;7.20;79.70;;;;;;5173269;27;20071;-56
2021/12/29 13:05:15;;;;;;;13.18;3.25;;;7.20;79.70;;;;;;5174322;27;20374;-57
2021/12/29 13:07:43;;;;;;;5.20;3.10;;;7.20;79.70;;;;;;5156947;27;20042;-56
2021/12/29 13:10:12;;;;;;;5.38;3.03;;;7.20;79.70;;;;;;5175232;27;20405;-57